sensor_id;sensor_type;location;lat;lon;timestamp;pressure;altitude;pressure_sealevel;temperature;humidity
4392;BME280;2210;51.938;8.488;2023-04-26T00:03:08;100700.09;;;4.76;100.00
4392;BME280;2210;51.938;8.488;2023-04-26T00:07:12;100697.16;;;4.78;100.00
4392;BME280;2210;51.938;8.488;2023-04-26T00:11:12;100696.22;;;4.70;100.00
4392;BME280;2210;51.938;8.488;2023-04-26T00:15:13;100697.38;;;4.61;100.00
4392;BME280;2210;51.938;8.488;2023-04-26T00:19:19;100705.41;;;4.63;100.00
4392;BME280;2210;51.938;8.488;2023-04-26T00:23:20;100702.47;;;4.64;100.00
4392;BME280;2210;51.938;8.488;2023-04-26T00:27:23;100701.94;;;4.54;100.00
4392;BME280;2210;51.938;8.488;2023-04-26T00:31:24;100698.19;;;4.55;100.00
4392;BME280;2210;51.938;8.488;2023-04-26T00:35:24;100700.91;;;4.55;100.00
4392;BME280;2210;51.938;8.488;2023-04-26T00:39:24;100701.03;;;4.47;100.00
4392;BME280;2210;51.938;8.488;2023-04-26T00:43:28;100703.38;;;4.50;100.00
4392;BME280;2210;51.938;8.488;2023-04-26T00:47:31;100706.22;;;4.42;100.00
4392;BME280;2210;51.938;8.488;2023-04-26T00:51:32;100700.47;;;4.36;100.00
4392;BME280;2210;51.938;8.488;2023-04-26T00:55:42;100692.22;;;4.30;100.00
4392;BME280;2210;51.938;8.488;2023-04-26T00:59:42;100702.50;;;4.28;100.00
4392;BME280;2210;51.938;8.488;2023-04-26T01:03:48;100686.69;;;4.08;100.00
4392;BME280;2210;51.938;8.488;2023-04-26T01:07:52;100697.69;;;4.15;100.00
4392;BME280;2210;51.938;8.488;2023-04-26T01:11:52;100698.09;;;4.12;100.00
4392;BME280;2210;51.938;8.488;2023-04-26T01:16:06;100697.16;;;4.04;100.00
4392;BME280;2210;51.938;8.488;2023-04-26T01:20:07;100702.25;;;3.93;100.00
4392;BME280;2210;51.938;8.488;2023-04-26T01:24:11;100702.44;;;3.91;100.00
4392;BME280;2210;51.938;8.488;2023-04-26T01:28:14;100700.19;;;3.80;100.00
4392;BME280;2210;51.938;8.488;2023-04-26T01:32:18;100705.38;;;3.75;100.00
4392;BME280;2210;51.938;8.488;2023-04-26T01:36:18;100706.94;;;3.54;100.00
4392;BME280;2210;51.938;8.488;2023-04-26T01:40:18;100697.38;;;3.58;100.00
4392;BME280;2210;51.938;8.488;2023-04-26T01:44:18;100702.88;;;3.50;100.00
4392;BME280;2210;51.938;8.488;2023-04-26T01:48:19;100711.25;;;3.48;100.00
4392;BME280;2210;51.938;8.488;2023-04-26T01:52:21;100708.28;;;3.43;100.00
4392;BME280;2210;51.938;8.488;2023-04-26T01:56:24;100703.44;;;3.30;100.00
4392;BME280;2210;51.938;8.488;2023-04-26T02:00:25;100708.50;;;3.33;100.00
4392;BME280;2210;51.938;8.488;2023-04-26T02:04:26;100710.88;;;3.22;100.00
4392;BME280;2210;51.938;8.488;2023-04-26T02:08:27;100705.88;;;3.25;100.00
4392;BME280;2210;51.938;8.488;2023-04-26T02:12:30;100706.13;;;3.15;100.00
4392;BME280;2210;51.938;8.488;2023-04-26T02:16:38;100705.72;;;3.03;100.00
4392;BME280;2210;51.938;8.488;2023-04-26T02:20:42;100711.66;;;3.07;100.00
4392;BME280;2210;51.938;8.488;2023-04-26T02:25:05;100719.28;;;3.12;100.00
4392;BME280;2210;51.938;8.488;2023-04-26T02:29:05;100712.09;;;2.96;100.00
4392;BME280;2210;51.938;8.488;2023-04-26T02:33:06;100716.69;;;2.72;100.00
4392;BME280;2210;51.938;8.488;2023-04-26T02:37:07;100714.19;;;2.39;100.00
4392;BME280;2210;51.938;8.488;2023-04-26T02:41:14;100715.28;;;2.53;100.00
4392;BME280;2210;51.938;8.488;2023-04-26T02:45:14;100721.00;;;2.66;100.00
4392;BME280;2210;51.938;8.488;2023-04-26T02:49:14;100727.78;;;2.70;100.00
4392;BME280;2210;51.938;8.488;2023-04-26T02:53:15;100724.75;;;2.65;100.00
4392;BME280;2210;51.938;8.488;2023-04-26T02:57:16;100716.25;;;2.60;100.00
4392;BME280;2210;51.938;8.488;2023-04-26T03:01:17;100729.53;;;2.63;100.00
4392;BME280;2210;51.938;8.488;2023-04-26T03:05:21;100727.75;;;2.47;100.00
4392;BME280;2210;51.938;8.488;2023-04-26T03:09:21;100725.53;;;2.51;100.00
4392;BME280;2210;51.938;8.488;2023-04-26T03:13:22;100727.25;;;2.44;100.00
4392;BME280;2210;51.938;8.488;2023-04-26T03:17:23;100730.25;;;2.26;100.00
4392;BME280;2210;51.938;8.488;2023-04-26T03:21:26;100718.91;;;2.45;100.00
4392;BME280;2210;51.938;8.488;2023-04-26T03:25:30;100722.31;;;2.47;100.00
4392;BME280;2210;51.938;8.488;2023-04-26T03:29:31;100717.09;;;2.38;100.00
4392;BME280;2210;51.938;8.488;2023-04-26T03:33:32;100717.97;;;2.30;100.00
4392;BME280;2210;51.938;8.488;2023-04-26T03:37:35;100708.25;;;2.35;100.00
4392;BME280;2210;51.938;8.488;2023-04-26T03:41:41;100714.25;;;2.31;100.00
4392;BME280;2210;51.938;8.488;2023-04-26T03:45:45;100703.19;;;2.32;100.00
4392;BME280;2210;51.938;8.488;2023-04-26T03:49:46;100711.38;;;2.24;100.00
4392;BME280;2210;51.938;8.488;2023-04-26T03:53:49;100716.72;;;2.41;100.00
4392;BME280;2210;51.938;8.488;2023-04-26T03:57:53;100712.69;;;2.36;100.00
4392;BME280;2210;51.938;8.488;2023-04-26T04:01:53;100712.19;;;2.33;100.00
4392;BME280;2210;51.938;8.488;2023-04-26T04:05:56;100719.22;;;2.19;100.00
4392;BME280;2210;51.938;8.488;2023-04-26T04:10:00;100715.81;;;2.25;100.00
4392;BME280;2210;51.938;8.488;2023-04-26T04:14:12;100724.03;;;2.09;100.00
4392;BME280;2210;51.938;8.488;2023-04-26T04:18:16;100718.41;;;2.10;100.00
4392;BME280;2210;51.938;8.488;2023-04-26T04:22:16;100720.94;;;2.20;100.00
4392;BME280;2210;51.938;8.488;2023-04-26T04:26:16;100714.09;;;1.84;100.00
4392;BME280;2210;51.938;8.488;2023-04-26T04:30:21;100724.75;;;2.02;100.00
4392;BME280;2210;51.938;8.488;2023-04-26T04:34:24;100719.66;;;1.99;100.00
4392;BME280;2210;51.938;8.488;2023-04-26T04:38:25;100731.91;;;1.95;100.00
4392;BME280;2210;51.938;8.488;2023-04-26T04:42:25;100727.78;;;2.08;100.00
4392;BME280;2210;51.938;8.488;2023-04-26T04:46:28;100730.47;;;2.16;100.00
4392;BME280;2210;51.938;8.488;2023-04-26T04:50:31;100734.59;;;2.04;100.00
4392;BME280;2210;51.938;8.488;2023-04-26T04:54:32;100735.47;;;1.96;100.00
4392;BME280;2210;51.938;8.488;2023-04-26T04:58:41;100731.88;;;2.04;100.00
4392;BME280;2210;51.938;8.488;2023-04-26T05:02:41;100747.13;;;1.57;100.00
4392;BME280;2210;51.938;8.488;2023-04-26T05:06:41;100743.75;;;2.11;100.00
4392;BME280;2210;51.938;8.488;2023-04-26T05:10:45;100745.38;;;2.28;100.00
4392;BME280;2210;51.938;8.488;2023-04-26T05:14:45;100737.72;;;2.24;100.00
4392;BME280;2210;51.938;8.488;2023-04-26T05:18:45;100747.72;;;2.31;100.00
4392;BME280;2210;51.938;8.488;2023-04-26T05:22:49;100742.16;;;2.56;100.00
4392;BME280;2210;51.938;8.488;2023-04-26T05:26:52;100748.94;;;2.83;100.00
4392;BME280;2210;51.938;8.488;2023-04-26T05:30:55;100748.47;;;2.80;100.00
4392;BME280;2210;51.938;8.488;2023-04-26T05:35:08;100745.47;;;2.43;100.00
4392;BME280;2210;51.938;8.488;2023-04-26T05:39:17;100748.41;;;2.65;100.00
4392;BME280;2210;51.938;8.488;2023-04-26T05:43:19;100756.34;;;2.98;100.00
4392;BME280;2210;51.938;8.488;2023-04-26T05:47:22;100756.91;;;3.31;100.00
4392;BME280;2210;51.938;8.488;2023-04-26T05:51:23;100757.50;;;3.42;100.00
4392;BME280;2210;51.938;8.488;2023-04-26T05:55:23;100761.66;;;3.67;100.00
4392;BME280;2210;51.938;8.488;2023-04-26T05:59:23;100760.91;;;4.33;100.00
4392;BME280;2210;51.938;8.488;2023-04-26T06:03:26;100756.22;;;4.27;100.00
4392;BME280;2210;51.938;8.488;2023-04-26T06:07:27;100765.25;;;4.43;100.00
4392;BME280;2210;51.938;8.488;2023-04-26T06:11:27;100763.69;;;4.92;98.30
4392;BME280;2210;51.938;8.488;2023-04-26T06:15:27;100765.63;;;5.19;97.49
4392;BME280;2210;51.938;8.488;2023-04-26T06:19:27;100773.25;;;5.46;95.89
4392;BME280;2210;51.938;8.488;2023-04-26T06:23:33;100774.03;;;5.68;94.22
4392;BME280;2210;51.938;8.488;2023-04-26T06:27:40;100773.31;;;6.16;90.68
4392;BME280;2210;51.938;8.488;2023-04-26T06:31:44;100787.00;;;6.09;90.93
4392;BME280;2210;51.938;8.488;2023-04-26T06:35:48;100784.16;;;6.37;91.10
4392;BME280;2210;51.938;8.488;2023-04-26T06:39:51;100781.59;;;6.29;92.15
4392;BME280;2210;51.938;8.488;2023-04-26T06:43:51;100789.03;;;6.00;91.42
4392;BME280;2210;51.938;8.488;2023-04-26T06:47:51;100797.06;;;6.08;91.88
4392;BME280;2210;51.938;8.488;2023-04-26T06:51:55;100785.13;;;6.58;91.37
4392;BME280;2210;51.938;8.488;2023-04-26T06:55:55;100786.41;;;6.62;87.25
4392;BME280;2210;51.938;8.488;2023-04-26T07:00:03;100781.41;;;6.86;87.90
4392;BME280;2210;51.938;8.488;2023-04-26T07:04:06;100781.44;;;6.99;87.10
4392;BME280;2210;51.938;8.488;2023-04-26T07:08:17;100783.19;;;7.54;83.85
4392;BME280;2210;51.938;8.488;2023-04-26T07:12:30;100784.63;;;7.30;81.92
4392;BME280;2210;51.938;8.488;2023-04-26T07:16:36;100789.06;;;7.24;81.94
4392;BME280;2210;51.938;8.488;2023-04-26T07:20:36;100782.69;;;8.10;78.37
4392;BME280;2210;51.938;8.488;2023-04-26T07:24:43;100786.25;;;8.24;76.23
4392;BME280;2210;51.938;8.488;2023-04-26T07:28:46;100784.00;;;7.88;76.86
4392;BME280;2210;51.938;8.488;2023-04-26T07:32:46;100786.25;;;8.24;75.49
4392;BME280;2210;51.938;8.488;2023-04-26T07:36:50;100781.25;;;7.94;76.08
4392;BME280;2210;51.938;8.488;2023-04-26T07:40:59;100789.09;;;7.64;76.06
4392;BME280;2210;51.938;8.488;2023-04-26T07:45:03;100784.63;;;8.03;77.12
4392;BME280;2210;51.938;8.488;2023-04-26T07:49:22;100778.44;;;8.28;77.44
4392;BME280;2210;51.938;8.488;2023-04-26T07:53:26;100776.44;;;7.56;74.80
4392;BME280;2210;51.938;8.488;2023-04-26T07:57:26;100781.31;;;7.61;76.95
4392;BME280;2210;51.938;8.488;2023-04-26T08:01:26;100780.78;;;8.11;73.64
4392;BME280;2210;51.938;8.488;2023-04-26T08:05:27;100775.13;;;7.99;72.59
4392;BME280;2210;51.938;8.488;2023-04-26T08:09:28;100778.13;;;7.71;74.03
4392;BME280;2210;51.938;8.488;2023-04-26T08:13:29;100771.28;;;8.14;74.60
4392;BME280;2210;51.938;8.488;2023-04-26T08:17:38;100764.59;;;9.00;70.87
4392;BME280;2210;51.938;8.488;2023-04-26T08:21:42;100771.59;;;8.57;69.23
4392;BME280;2210;51.938;8.488;2023-04-26T08:25:45;100768.38;;;8.02;68.56
4392;BME280;2210;51.938;8.488;2023-04-26T08:29:55;100769.63;;;8.13;70.63
4392;BME280;2210;51.938;8.488;2023-04-26T08:33:58;100765.84;;;9.04;69.58
4392;BME280;2210;51.938;8.488;2023-04-26T08:37:58;100769.19;;;8.02;66.03
4392;BME280;2210;51.938;8.488;2023-04-26T08:42:15;100760.22;;;8.40;67.65
4392;BME280;2210;51.938;8.488;2023-04-26T08:46:18;100761.84;;;8.62;66.57
4392;BME280;2210;51.938;8.488;2023-04-26T08:50:24;100762.94;;;8.54;67.95
4392;BME280;2210;51.938;8.488;2023-04-26T08:54:25;100764.19;;;8.58;65.33
4392;BME280;2210;51.938;8.488;2023-04-26T08:58:30;100761.25;;;8.53;65.84
4392;BME280;2210;51.938;8.488;2023-04-26T09:02:41;100751.09;;;8.92;65.25
4392;BME280;2210;51.938;8.488;2023-04-26T09:06:52;100758.63;;;9.03;65.25
4392;BME280;2210;51.938;8.488;2023-04-26T09:10:57;100750.63;;;8.63;64.16
4392;BME280;2210;51.938;8.488;2023-04-26T09:15:01;100767.78;;;8.52;65.28
4392;BME280;2210;51.938;8.488;2023-04-26T09:19:01;100774.06;;;8.72;64.60
4392;BME280;2210;51.938;8.488;2023-04-26T09:23:07;100769.00;;;9.33;63.46
4392;BME280;2210;51.938;8.488;2023-04-26T09:27:07;100767.56;;;8.99;62.96
4392;BME280;2210;51.938;8.488;2023-04-26T09:31:08;100771.72;;;8.69;63.76
4392;BME280;2210;51.938;8.488;2023-04-26T09:39:31;100771.00;;;8.35;65.61
4392;BME280;2210;51.938;8.488;2023-04-26T09:43:36;100781.34;;;8.40;67.34
4392;BME280;2210;51.938;8.488;2023-04-26T09:47:36;100778.63;;;8.47;66.47
4392;BME280;2210;51.938;8.488;2023-04-26T09:51:36;100784.31;;;8.38;66.44
4392;BME280;2210;51.938;8.488;2023-04-26T09:55:37;100794.75;;;8.03;66.73
4392;BME280;2210;51.938;8.488;2023-04-26T09:59:51;100790.50;;;8.07;67.63
4392;BME280;2210;51.938;8.488;2023-04-26T10:03:55;100800.38;;;8.35;69.42
4392;BME280;2210;51.938;8.488;2023-04-26T10:07:59;100787.69;;;8.40;68.93
4392;BME280;2210;51.938;8.488;2023-04-26T10:12:03;100791.28;;;8.48;69.19
4392;BME280;2210;51.938;8.488;2023-04-26T10:16:04;100790.56;;;8.72;69.99
4392;BME280;2210;51.938;8.488;2023-04-26T10:20:09;100792.34;;;8.47;67.89
4392;BME280;2210;51.938;8.488;2023-04-26T10:24:11;100793.84;;;8.29;67.91
4392;BME280;2210;51.938;8.488;2023-04-26T10:28:11;100792.56;;;8.38;69.04
4392;BME280;2210;51.938;8.488;2023-04-26T10:32:14;100785.19;;;8.32;69.22
4392;BME280;2210;51.938;8.488;2023-04-26T10:36:18;100776.13;;;8.25;69.40
4392;BME280;2210;51.938;8.488;2023-04-26T10:40:28;100767.50;;;8.08;68.92
4392;BME280;2210;51.938;8.488;2023-04-26T10:44:37;100770.47;;;8.06;68.45
4392;BME280;2210;51.938;8.488;2023-04-26T10:48:39;100758.00;;;7.97;68.58
4392;BME280;2210;51.938;8.488;2023-04-26T10:53:04;100765.78;;;8.14;71.80
4392;BME280;2210;51.938;8.488;2023-04-26T10:57:04;100762.38;;;8.25;71.07
4392;BME280;2210;51.938;8.488;2023-04-26T11:01:09;100753.88;;;8.53;70.23
4392;BME280;2210;51.938;8.488;2023-04-26T11:09:36;100744.88;;;9.03;66.48
4392;BME280;2210;51.938;8.488;2023-04-26T11:13:40;100741.00;;;8.86;65.80
4392;BME280;2210;51.938;8.488;2023-04-26T11:17:41;100739.72;;;8.82;65.69
4392;BME280;2210;51.938;8.488;2023-04-26T11:21:41;100744.38;;;8.88;66.14
4392;BME280;2210;51.938;8.488;2023-04-26T11:25:42;100736.63;;;8.71;62.82
4392;BME280;2210;51.938;8.488;2023-04-26T11:29:43;100738.22;;;8.54;59.74
4392;BME280;2210;51.938;8.488;2023-04-26T11:33:43;100743.88;;;8.66;61.29
4392;BME280;2210;51.938;8.488;2023-04-26T11:37:44;100742.66;;;8.87;62.66
4392;BME280;2210;51.938;8.488;2023-04-26T11:41:45;100756.69;;;8.78;60.65
4392;BME280;2210;51.938;8.488;2023-04-26T11:45:45;100743.09;;;8.90;60.78
4392;BME280;2210;51.938;8.488;2023-04-26T11:49:46;100745.75;;;8.65;60.13
4392;BME280;2210;51.938;8.488;2023-04-26T11:53:46;100746.22;;;8.55;60.09
4392;BME280;2210;51.938;8.488;2023-04-26T11:57:46;100750.38;;;8.71;61.28
4392;BME280;2210;51.938;8.488;2023-04-26T12:01:49;100750.38;;;8.71;58.27
4392;BME280;2210;51.938;8.488;2023-04-26T12:05:54;100746.16;;;8.69;57.52
4392;BME280;2210;51.938;8.488;2023-04-26T12:10:12;100754.63;;;8.67;57.96
4392;BME280;2210;51.938;8.488;2023-04-26T12:14:15;100764.66;;;8.87;58.53
4392;BME280;2210;51.938;8.488;2023-04-26T12:18:15;100764.13;;;8.71;57.71
4392;BME280;2210;51.938;8.488;2023-04-26T12:22:19;100759.03;;;8.75;58.06
4392;BME280;2210;51.938;8.488;2023-04-26T12:26:21;100761.00;;;9.00;60.05
4392;BME280;2210;51.938;8.488;2023-04-26T12:30:21;100759.13;;;8.93;57.85
4392;BME280;2210;51.938;8.488;2023-04-26T12:34:21;100761.31;;;8.85;58.03
4392;BME280;2210;51.938;8.488;2023-04-26T12:38:22;100755.66;;;9.11;58.49
4392;BME280;2210;51.938;8.488;2023-04-26T12:42:22;100762.78;;;9.19;58.13
4392;BME280;2210;51.938;8.488;2023-04-26T12:46:22;100754.47;;;9.26;57.58
4392;BME280;2210;51.938;8.488;2023-04-26T12:50:23;100757.00;;;8.96;56.53
4392;BME280;2210;51.938;8.488;2023-04-26T12:54:23;100761.75;;;9.14;57.50
4392;BME280;2210;51.938;8.488;2023-04-26T12:58:23;100762.41;;;9.16;58.08
4392;BME280;2210;51.938;8.488;2023-04-26T13:02:24;100761.38;;;9.03;58.33
4392;BME280;2210;51.938;8.488;2023-04-26T13:06:24;100765.84;;;9.04;59.02
4392;BME280;2210;51.938;8.488;2023-04-26T13:10:26;100764.28;;;8.83;58.60
4392;BME280;2210;51.938;8.488;2023-04-26T13:14:27;100775.66;;;8.87;60.15
4392;BME280;2210;51.938;8.488;2023-04-26T13:18:28;100773.44;;;8.70;59.33
4392;BME280;2210;51.938;8.488;2023-04-26T13:22:28;100765.22;;;8.64;59.23
4392;BME280;2210;51.938;8.488;2023-04-26T13:26:28;100770.16;;;8.48;60.23
4392;BME280;2210;51.938;8.488;2023-04-26T13:30:29;100768.13;;;8.75;60.46
4392;BME280;2210;51.938;8.488;2023-04-26T13:34:30;100767.88;;;8.84;59.97
4392;BME280;2210;51.938;8.488;2023-04-26T13:38:31;100763.22;;;8.77;59.44
4392;BME280;2210;51.938;8.488;2023-04-26T13:42:31;100773.81;;;8.81;60.00
4392;BME280;2210;51.938;8.488;2023-04-26T13:46:31;100772.91;;;8.87;59.70
4392;BME280;2210;51.938;8.488;2023-04-26T13:50:31;100766.75;;;8.98;59.64
4392;BME280;2210;51.938;8.488;2023-04-26T13:54:34;100766.47;;;9.06;57.80
4392;BME280;2210;51.938;8.488;2023-04-26T13:58:36;100766.50;;;9.00;57.45
4392;BME280;2210;51.938;8.488;2023-04-26T14:02:36;100774.34;;;8.96;57.07
4392;BME280;2210;51.938;8.488;2023-04-26T14:06:39;100764.78;;;9.05;57.55
4392;BME280;2210;51.938;8.488;2023-04-26T14:10:42;100773.13;;;9.24;58.88
4392;BME280;2210;51.938;8.488;2023-04-26T14:14:42;100765.47;;;9.26;57.87
4392;BME280;2210;51.938;8.488;2023-04-26T14:18:42;100763.09;;;9.36;57.88
4392;BME280;2210;51.938;8.488;2023-04-26T14:22:44;100769.25;;;9.57;58.76
4392;BME280;2210;51.938;8.488;2023-04-26T14:26:45;100760.25;;;9.68;57.78
4392;BME280;2210;51.938;8.488;2023-04-26T14:30:45;100762.44;;;9.85;56.93
4392;BME280;2210;51.938;8.488;2023-04-26T14:34:45;100755.91;;;9.79;55.92
4392;BME280;2210;51.938;8.488;2023-04-26T14:38:45;100760.53;;;9.85;56.13
4392;BME280;2210;51.938;8.488;2023-04-26T14:42:46;100753.22;;;9.98;56.39
4392;BME280;2210;51.938;8.488;2023-04-26T14:46:46;100755.97;;;9.98;56.12
4392;BME280;2210;51.938;8.488;2023-04-26T14:50:46;100756.91;;;9.66;55.76
4392;BME280;2210;51.938;8.488;2023-04-26T14:54:47;100759.94;;;9.58;58.26
4392;BME280;2210;51.938;8.488;2023-04-26T14:58:47;100760.06;;;9.44;56.95
4392;BME280;2210;51.938;8.488;2023-04-26T15:02:47;100762.03;;;9.37;56.93
4392;BME280;2210;51.938;8.488;2023-04-26T15:06:47;100762.22;;;9.36;59.10
4392;BME280;2210;51.938;8.488;2023-04-26T15:10:48;100754.59;;;9.38;57.95
4392;BME280;2210;51.938;8.488;2023-04-26T15:14:48;100749.03;;;9.44;59.88
4392;BME280;2210;51.938;8.488;2023-04-26T15:18:48;100756.53;;;9.37;58.50
4392;BME280;2210;51.938;8.488;2023-04-26T15:22:49;100747.00;;;9.33;58.53
4392;BME280;2210;51.938;8.488;2023-04-26T15:26:49;100742.34;;;9.34;58.65
4392;BME280;2210;51.938;8.488;2023-04-26T15:30:49;100754.59;;;9.38;59.00
4392;BME280;2210;51.938;8.488;2023-04-26T15:34:50;100743.38;;;9.39;59.40
4392;BME280;2210;51.938;8.488;2023-04-26T15:38:50;100747.13;;;9.45;59.50
4392;BME280;2210;51.938;8.488;2023-04-26T15:42:50;100742.91;;;9.42;59.27
4392;BME280;2210;51.938;8.488;2023-04-26T15:46:51;100747.13;;;9.45;59.06
4392;BME280;2210;51.938;8.488;2023-04-26T15:50:51;100747.13;;;9.45;58.56
4392;BME280;2210;51.938;8.488;2023-04-26T15:54:53;100748.31;;;9.56;58.16
4392;BME280;2210;51.938;8.488;2023-04-26T15:58:54;100747.19;;;9.64;56.86
4392;BME280;2210;51.938;8.488;2023-04-26T16:02:56;100745.91;;;9.66;57.76
4392;BME280;2210;51.938;8.488;2023-04-26T16:06:56;100739.75;;;9.64;56.14
4392;BME280;2210;51.938;8.488;2023-04-26T16:10:58;100739.44;;;9.28;54.26
4392;BME280;2210;51.938;8.488;2023-04-26T16:14:59;100740.25;;;9.29;54.56
4392;BME280;2210;51.938;8.488;2023-04-26T16:18:59;100733.75;;;9.49;53.91
4392;BME280;2210;51.938;8.488;2023-04-26T16:22:59;100734.66;;;9.42;54.24
4392;BME280;2210;51.938;8.488;2023-04-26T16:27:00;100719.78;;;9.50;54.36
4392;BME280;2210;51.938;8.488;2023-04-26T16:31:01;100723.22;;;9.45;54.84
4392;BME280;2210;51.938;8.488;2023-04-26T16:35:01;100723.22;;;9.45;55.83
4392;BME280;2210;51.938;8.488;2023-04-26T16:39:01;100722.41;;;9.38;56.31
4392;BME280;2210;51.938;8.488;2023-04-26T16:43:02;100723.94;;;9.34;55.88
4392;BME280;2210;51.938;8.488;2023-04-26T16:47:02;100719.66;;;9.38;56.07
4392;BME280;2210;51.938;8.488;2023-04-26T16:51:04;100719.38;;;9.47;54.92
4392;BME280;2210;51.938;8.488;2023-04-26T16:55:05;100717.38;;;9.35;55.39
4392;BME280;2210;51.938;8.488;2023-04-26T16:59:05;100720.75;;;9.37;55.17
4392;BME280;2210;51.938;8.488;2023-04-26T17:03:05;100728.38;;;9.35;54.40
4392;BME280;2210;51.938;8.488;2023-04-26T17:07:05;100731.56;;;9.32;55.77
4392;BME280;2210;51.938;8.488;2023-04-26T17:11:06;100731.84;;;9.24;55.92
4392;BME280;2210;51.938;8.488;2023-04-26T17:15:07;100742.47;;;9.20;57.14
4392;BME280;2210;51.938;8.488;2023-04-26T17:19:07;100745.06;;;9.08;57.12
4392;BME280;2210;51.938;8.488;2023-04-26T17:23:07;100747.44;;;9.05;57.39
4392;BME280;2210;51.938;8.488;2023-04-26T17:27:08;100739.19;;;9.05;57.11
4392;BME280;2210;51.938;8.488;2023-04-26T17:31:08;100744.28;;;9.01;57.48
4392;BME280;2210;51.938;8.488;2023-04-26T17:35:08;100748.53;;;8.97;56.81
4392;BME280;2210;51.938;8.488;2023-04-26T17:39:09;100757.50;;;8.86;57.58
4392;BME280;2210;51.938;8.488;2023-04-26T17:43:09;100757.44;;;8.92;60.81
4392;BME280;2210;51.938;8.488;2023-04-26T17:47:10;100755.13;;;8.89;59.25
4392;BME280;2210;51.938;8.488;2023-04-26T17:51:22;100751.09;;;8.92;60.84
4392;BME280;2210;51.938;8.488;2023-04-26T17:55:25;100753.28;;;8.83;61.23
4392;BME280;2210;51.938;8.488;2023-04-26T17:59:27;100757.44;;;8.92;61.23
4392;BME280;2210;51.938;8.488;2023-04-26T18:03:27;100758.31;;;8.93;61.42
4392;BME280;2210;51.938;8.488;2023-04-26T18:07:29;100760.72;;;8.76;60.89
4392;BME280;2210;51.938;8.488;2023-04-26T18:11:30;100761.16;;;8.73;61.00
4392;BME280;2210;51.938;8.488;2023-04-26T18:15:33;100769.81;;;8.76;61.37
4392;BME280;2210;51.938;8.488;2023-04-26T18:19:33;100766.03;;;8.71;61.22
4392;BME280;2210;51.938;8.488;2023-04-26T18:23:36;100768.94;;;8.76;60.99
4392;BME280;2210;51.938;8.488;2023-04-26T18:27:43;100771.16;;;8.60;60.33
4392;BME280;2210;51.938;8.488;2023-04-26T18:31:43;100771.63;;;8.51;60.18
4392;BME280;2210;51.938;8.488;2023-04-26T18:35:43;100777.34;;;8.49;62.16
4392;BME280;2210;51.938;8.488;2023-04-26T18:39:46;100779.66;;;8.39;61.05
4392;BME280;2210;51.938;8.488;2023-04-26T18:43:47;100778.19;;;8.36;61.80
4392;BME280;2210;51.938;8.488;2023-04-26T18:47:47;100782.63;;;8.37;62.13
4392;BME280;2210;51.938;8.488;2023-04-26T18:51:48;100788.56;;;8.34;61.83
4392;BME280;2210;51.938;8.488;2023-04-26T18:55:51;100787.09;;;8.32;61.87
4392;BME280;2210;51.938;8.488;2023-04-26T18:59:57;100790.47;;;8.27;62.19
4392;BME280;2210;51.938;8.488;2023-04-26T19:04:02;100792.78;;;8.30;62.91
4392;BME280;2210;51.938;8.488;2023-04-26T19:08:05;100790.47;;;8.27;65.82
4392;BME280;2210;51.938;8.488;2023-04-26T19:12:06;100794.09;;;8.21;65.03
4392;BME280;2210;51.938;8.488;2023-04-26T19:16:08;100792.41;;;8.13;64.07
4392;BME280;2210;51.938;8.488;2023-04-26T19:20:14;100806.56;;;8.17;66.51
4392;BME280;2210;51.938;8.488;2023-04-26T19:24:15;100811.00;;;8.04;64.02
4392;BME280;2210;51.938;8.488;2023-04-26T19:28:15;100816.31;;;8.13;67.65
4392;BME280;2210;51.938;8.488;2023-04-26T19:32:15;100823.47;;;8.00;67.05
4392;BME280;2210;51.938;8.488;2023-04-26T19:36:23;100808.47;;;8.09;67.28
4392;BME280;2210;51.938;8.488;2023-04-26T19:40:24;100815.66;;;8.04;68.74
4392;BME280;2210;51.938;8.488;2023-04-26T19:44:27;100824.94;;;8.03;68.97
4392;BME280;2210;51.938;8.488;2023-04-26T19:48:28;100816.69;;;8.16;67.46
4392;BME280;2210;51.938;8.488;2023-04-26T19:52:31;100820.53;;;7.95;69.93
4392;BME280;2210;51.938;8.488;2023-04-26T19:56:31;100828.78;;;7.82;71.45
4392;BME280;2210;51.938;8.488;2023-04-26T20:00:32;100830.28;;;7.78;71.62
4392;BME280;2210;51.938;8.488;2023-04-26T20:04:35;100821.59;;;7.81;70.63
4392;BME280;2210;51.938;8.488;2023-04-26T20:08:35;100835.09;;;7.69;72.32
4392;BME280;2210;51.938;8.488;2023-04-26T20:12:36;100829.41;;;7.70;70.42
4392;BME280;2210;51.938;8.488;2023-04-26T20:16:36;100825.41;;;7.73;71.69
4392;BME280;2210;51.938;8.488;2023-04-26T20:20:45;100832.16;;;7.70;72.31
4392;BME280;2210;51.938;8.488;2023-04-26T20:24:46;100830.28;;;7.71;72.02
4392;BME280;2210;51.938;8.488;2023-04-26T20:28:47;100836.19;;;7.61;74.09
4392;BME280;2210;51.938;8.488;2023-04-26T20:32:48;100831.50;;;7.48;74.23
4392;BME280;2210;51.938;8.488;2023-04-26T20:36:48;100836.13;;;7.28;71.86
4392;BME280;2210;51.938;8.488;2023-04-26T20:40:48;100835.91;;;7.29;72.53
4392;BME280;2210;51.938;8.488;2023-04-26T20:44:49;100832.56;;;7.27;74.20
4392;BME280;2210;51.938;8.488;2023-04-26T20:48:52;100841.19;;;7.24;75.77
4392;BME280;2210;51.938;8.488;2023-04-26T20:52:53;100852.34;;;7.22;76.75
4392;BME280;2210;51.938;8.488;2023-04-26T20:56:53;100845.59;;;7.18;78.05
4392;BME280;2210;51.938;8.488;2023-04-26T21:00:53;100848.97;;;7.14;77.57
4392;BME280;2210;51.938;8.488;2023-04-26T21:04:54;100840.50;;;7.08;78.74
4392;BME280;2210;51.938;8.488;2023-04-26T21:08:54;100843.03;;;7.03;80.12
4392;BME280;2210;51.938;8.488;2023-04-26T21:12:54;100850.59;;;6.95;81.31
4392;BME280;2210;51.938;8.488;2023-04-26T21:16:55;100855.81;;;6.83;82.28
4392;BME280;2210;51.938;8.488;2023-04-26T21:20:58;100856.63;;;6.77;82.56
4392;BME280;2210;51.938;8.488;2023-04-26T21:24:58;100858.50;;;6.69;83.33
4392;BME280;2210;51.938;8.488;2023-04-26T21:28:59;100862.44;;;6.60;85.47
4392;BME280;2210;51.938;8.488;2023-04-26T21:32:59;100855.44;;;6.51;85.75
4392;BME280;2210;51.938;8.488;2023-04-26T21:37:00;100862.34;;;6.40;87.15
4392;BME280;2210;51.938;8.488;2023-04-26T21:41:06;100850.97;;;6.36;87.85
4392;BME280;2210;51.938;8.488;2023-04-26T21:45:10;100844.38;;;6.31;88.66
4392;BME280;2210;51.938;8.488;2023-04-26T21:49:13;100852.22;;;6.34;88.29
4392;BME280;2210;51.938;8.488;2023-04-26T21:53:20;100867.41;;;6.36;88.89
4392;BME280;2210;51.938;8.488;2023-04-26T21:57:20;100861.25;;;6.34;89.34
4392;BME280;2210;51.938;8.488;2023-04-26T22:01:29;100852.41;;;6.32;88.92
4392;BME280;2210;51.938;8.488;2023-04-26T22:05:33;100858.69;;;6.26;87.53